Time;durP1;ratioP1;P1;durP2;ratioP2;P2;SDS_P1;SDS_P2;PMS_P1;PMS_P2;Temp;Humidity;BMP_temperature;BMP_pressure;BME280_temperature;BME280_humidity;BME280_pressure;Samples;Min_cycle;Max_cycle;Signal;HPM_P1;HPM_P2
2023/12/08 00:02:14;;;;;;;0.20;0.10;;;;;;;2.57;100.00;99751.78;5073946;28;20450;-51
2023/12/08 00:04:40;;;;;;;0.20;0.10;;;;;;;2.37;100.00;99739.63;5073802;28;20490;-51
2023/12/08 00:07:06;;;;;;;0.20;0.10;;;;;;;2.27;100.00;99737.94;5065222;28;20478;-51
2023/12/08 00:09:33;;;;;;;0.20;0.10;;;;;;;2.17;100.00;99728.34;5073008;28;20450;-52
2023/12/08 00:12:01;;;;;;;0.20;0.10;;;;;;;2.20;100.00;99730.97;5070573;28;20504;-52
2023/12/08 00:14:27;;;;;;;0.20;0.10;;;;;;;2.02;100.00;99728.41;5070613;28;20507;-51
2023/12/08 00:16:54;;;;;;;0.20;0.10;;;;;;;2.07;100.00;99717.03;5073845;28;20523;-51
2023/12/08 00:19:20;;;;;;;0.20;0.10;;;;;;;2.04;100.00;99727.50;5073807;28;20442;-51
2023/12/08 00:21:47;;;;;;;0.20;0.20;;;;;;;2.12;100.00;99729.25;5073580;28;20453;-51
2023/12/08 00:24:13;;;;;;;0.30;0.20;;;;;;;2.24;100.00;99729.22;5060093;28;20497;-51
2023/12/08 00:26:40;;;;;;;0.20;0.10;;;;;;;2.28;100.00;99720.44;5062472;28;20496;-52
2023/12/08 00:29:06;;;;;;;0.20;0.20;;;;;;;2.23;100.00;99724.84;5072694;28;20449;-51
2023/12/08 00:31:33;;;;;;;0.20;0.10;;;;;;;2.32;100.00;99727.41;5073314;28;20496;-51
2023/12/08 00:33:59;;;;;;;0.20;0.10;;;;;;;2.26;100.00;99727.44;5072607;28;20456;-51
2023/12/08 00:36:26;;;;;;;0.20;0.10;;;;;;;2.28;100.00;99725.69;5073188;28;20488;-51
2023/12/08 00:38:54;;;;;;;0.20;0.10;;;;;;;2.32;100.00;99727.41;5073291;28;20524;-51
2023/12/08 00:41:20;;;;;;;0.20;0.10;;;;;;;2.27;100.00;99703.84;5059763;28;20538;-52
2023/12/08 00:43:47;;;;;;;0.20;0.10;;;;;;;2.41;100.00;99724.75;5069017;28;20967;-51
2023/12/08 00:46:17;;;;;;;0.20;0.10;;;;;;;2.36;100.00;99719.53;5066907;28;20887;-52
2023/12/08 00:48:44;;;;;;;0.20;0.10;;;;;;;2.37;100.00;99716.03;5061259;28;20485;-53
2023/12/08 00:51:13;;;;;;;0.20;0.10;;;;;;;2.29;100.00;99715.19;5073021;28;20924;-52
2023/12/08 00:53:41;;;;;;;0.20;0.10;;;;;;;2.33;100.00;99710.78;5071729;28;20455;-52
2023/12/08 00:56:08;;;;;;;0.20;0.10;;;;;;;2.24;100.00;99723.97;5064756;28;20985;-51
2023/12/08 00:58:37;;;;;;;0.20;0.10;;;;;;;2.25;100.00;99723.09;5073054;28;20476;-52
2023/12/08 01:01:03;;;;;;;0.20;0.10;;;;;;;2.32;100.00;99719.53;5072857;28;20536;-51
2023/12/08 01:03:30;;;;;;;0.20;0.10;;;;;;;2.35;100.00;99722.19;5073088;28;20450;-52
2023/12/08 01:05:57;;;;;;;0.20;0.10;;;;;;;2.32;100.00;99714.31;5072683;28;20454;-51
2023/12/08 01:08:24;;;;;;;0.20;0.10;;;;;;;2.36;100.00;99708.19;5072481;28;20974;-52
2023/12/08 01:10:50;;;;;;;0.20;0.10;;;;;;;2.35;100.00;99714.31;5069980;28;20460;-52
2023/12/08 01:13:16;;;;;;;0.20;0.10;;;;;;;2.44;100.00;99711.63;5060993;28;20496;-51
2023/12/08 01:15:43;;;;;;;0.20;0.10;;;;;;;2.59;100.00;99714.16;5068253;28;20541;-52
2023/12/08 01:18:09;;;;;;;0.20;0.10;;;;;;;2.59;100.00;99711.53;5062744;28;20476;-51
2023/12/08 01:20:36;;;;;;;0.20;0.10;;;;;;;2.48;100.00;99705.50;5072409;28;20458;-52
2023/12/08 01:23:02;;;;;;;0.30;0.20;;;;;;;2.71;100.00;99705.34;5062434;28;20490;-51
2023/12/08 01:25:29;;;;;;;0.20;0.20;;;;;;;2.78;100.00;99703.56;5065416;28;20534;-52
2023/12/08 01:27:55;;;;;;;0.20;0.10;;;;;;;2.76;99.62;99689.59;5055906;28;21104;-52
2023/12/08 01:30:22;;;;;;;0.20;0.10;;;;;;;2.73;99.25;99684.34;5069271;28;20819;-51
2023/12/08 01:32:48;;;;;;;0.23;0.10;;;;;;;2.49;99.89;99688.88;5072102;28;20839;-51
2023/12/08 01:35:15;;;;;;;0.20;0.20;;;;;;;2.49;99.95;99682.78;5072204;28;20453;-52
2023/12/08 01:37:41;;;;;;;0.20;0.10;;;;;;;2.63;100.00;99680.94;5072274;28;20501;-51
2023/12/08 01:40:08;;;;;;;0.20;0.10;;;;;;;2.69;100.00;99680.88;5071288;28;20446;-51
2023/12/08 01:42:37;;;;;;;0.20;0.10;;;;;;;2.62;100.00;99674.81;5061970;28;20473;-51
2023/12/08 01:45:04;;;;;;;0.20;0.10;;;;;;;2.64;100.00;99685.28;5058621;28;21006;-52
2023/12/08 01:47:31;;;;;;;0.20;0.10;;;;;;;2.68;100.00;99692.25;5071447;28;20476;-51
2023/12/08 01:49:57;;;;;;;0.20;0.10;;;;;;;2.76;99.94;99687.84;5062907;28;20839;-51
2023/12/08 01:52:24;;;;;;;0.20;0.10;;;;;;;2.70;99.65;99687.00;5071794;28;20490;-52
2023/12/08 01:54:54;;;;;;;0.20;0.10;;;;;;;2.79;99.51;99687.81;5072093;28;20468;-51
2023/12/08 01:57:21;;;;;;;0.20;0.10;;;;;;;2.76;100.00;99679.09;5066367;28;20470;-52
2023/12/08 01:59:50;;;;;;;0.20;0.10;;;;;;;2.74;99.52;99673.88;5071584;28;20955;-51
2023/12/08 02:02:21;;;;;;;0.20;0.10;;;;;;;2.70;99.87;99674.75;5072143;28;20445;-51
2023/12/08 02:04:49;;;;;;;0.20;0.10;;;;;;;2.89;99.63;99696.50;5072304;28;20441;-52
2023/12/08 02:07:15;;;;;;;0.83;0.83;;;;;;;3.04;99.17;99687.63;5071826;28;20470;-52
2023/12/08 02:09:44;;;;;;;0.20;0.10;;;;;;;2.97;99.44;99698.16;5052205;28;20553;-52
2023/12/08 02:12:10;;;;;;;0.20;0.10;;;;;;;3.10;99.38;99688.44;5051355;28;20529;-52
2023/12/08 02:14:37;;;;;;;0.20;0.10;;;;;;;2.95;99.06;99691.19;5051587;28;20803;-52
2023/12/08 02:17:16;;;;;;;0.20;0.10;;;;;;;3.04;99.19;99685.88;5051503;28;20471;-52
2023/12/08 02:19:43;;;;;;;0.20;0.10;;;;;;;3.11;98.74;99674.44;5060231;28;20453;-52
2023/12/08 02:22:10;;;;;;;0.20;0.10;;;;;;;3.19;98.46;99677.88;5068877;28;20511;-52
2023/12/08 02:24:36;;;;;;;0.20;0.10;;;;;;;3.19;98.69;99674.38;5060737;28;20450;-51
2023/12/08 02:27:03;;;;;;;0.20;0.10;;;;;;;3.12;98.12;99663.03;5059120;28;20489;-52
2023/12/08 02:29:30;;;;;;;0.20;0.10;;;;;;;3.14;98.06;99658.63;5061291;28;20462;-53
2023/12/08 02:32:01;;;;;;;0.20;0.10;;;;;;;3.07;98.21;99658.72;5071077;28;20506;-52
2023/12/08 02:34:31;;;;;;;0.20;0.10;;;;;;;3.16;98.90;99666.53;5070417;28;20477;-51
2023/12/08 02:37:02;;;;;;;0.20;0.10;;;;;;;3.20;99.18;99669.09;5069029;28;20469;-51
2023/12/08 02:39:30;;;;;;;0.20;0.20;;;;;;;3.23;99.09;99657.69;5070491;28;20537;-51
2023/12/08 02:41:56;;;;;;;0.20;0.10;;;;;;;3.22;99.34;99650.72;5058953;28;20533;-52
2023/12/08 02:44:23;;;;;;;0.20;0.10;;;;;;;3.28;98.45;99654.13;5062889;28;20458;-51
2023/12/08 02:46:49;;;;;;;0.20;0.10;;;;;;;3.30;98.61;99656.78;5069185;28;20581;-51
2023/12/08 02:49:16;;;;;;;0.20;0.10;;;;;;;3.19;99.29;99656.88;5071388;28;21014;-52
2023/12/08 02:51:42;;;;;;;0.20;0.10;;;;;;;3.23;99.27;99663.81;5071093;28;20838;-52
2023/12/08 02:54:09;;;;;;;0.20;0.10;;;;;;;3.15;99.32;99656.88;5071373;28;20450;-52
2023/12/08 02:56:35;;;;;;;0.20;0.10;;;;;;;3.12;99.28;99652.53;5065735;28;21019;-51
2023/12/08 02:59:02;;;;;;;0.20;0.10;;;;;;;3.10;98.34;99638.56;5067054;28;20449;-52
2023/12/08 03:01:28;;;;;;;0.20;0.10;;;;;;;2.87;98.84;99637.88;5075155;28;20453;-52
2023/12/08 03:03:55;;;;;;;0.20;0.20;;;;;;;2.94;99.91;99636.94;5075236;28;20485;-54
2023/12/08 03:06:21;;;;;;;0.20;0.10;;;;;;;3.11;100.00;99640.28;5074919;28;20525;-52
2023/12/08 03:08:48;;;;;;;0.20;0.10;;;;;;;2.95;100.00;99630.81;5075123;28;20829;-52
2023/12/08 03:11:14;;;;;;;0.20;0.10;;;;;;;2.90;99.94;99616.88;5066018;28;20454;-51
2023/12/08 03:13:41;;;;;;;0.20;0.10;;;;;;;3.00;100.00;99612.41;5072078;28;20517;-52
2023/12/08 03:16:07;;;;;;;0.20;0.10;;;;;;;2.96;99.82;99614.19;5074239;28;20445;-51
2023/12/08 03:18:34;;;;;;;0.20;0.10;;;;;;;2.87;99.92;99603.75;5074620;28;20474;-52
2023/12/08 03:21:00;;;;;;;0.20;0.10;;;;;;;2.89;99.88;99600.25;5074600;28;20454;-52
2023/12/08 03:23:27;;;;;;;0.20;0.10;;;;;;;2.71;100.00;99594.28;5061648;28;20457;-50
2023/12/08 03:25:54;;;;;;;0.20;0.10;;;;;;;2.66;99.70;99591.69;5067203;28;20880;-51
2023/12/08 03:28:20;;;;;;;0.20;0.10;;;;;;;2.74;100.00;99592.53;5068000;28;21064;-52
2023/12/08 03:30:46;;;;;;;0.20;0.10;;;;;;;2.76;99.41;99596.00;5074877;28;20457;-52
2023/12/08 03:33:13;;;;;;;0.20;0.10;;;;;;;2.73;99.36;99603.00;5074736;28;20568;-52
2023/12/08 03:35:39;;;;;;;0.20;0.10;;;;;;;2.90;99.15;99596.75;5074629;28;20484;-54
2023/12/08 03:38:06;;;;;;;0.20;0.10;;;;;;;2.61;99.18;99591.75;5074307;28;20472;-51
2023/12/08 03:40:32;;;;;;;0.20;0.10;;;;;;;2.59;99.66;99590.84;5066199;28;20882;-52
2023/12/08 03:42:59;;;;;;;0.30;0.20;;;;;;;2.68;100.00;99582.06;5066941;28;20441;-51
2023/12/08 03:45:26;;;;;;;0.20;0.10;;;;;;;2.70;99.86;99571.56;5064805;28;20533;-52
2023/12/08 03:47:52;;;;;;;0.30;0.10;;;;;;;2.60;100.00;99579.53;5074181;28;20552;-51
2023/12/08 03:50:19;;;;;;;0.20;0.10;;;;;;;2.64;100.00;99569.84;5074842;28;20446;-55
2023/12/08 03:52:45;;;;;;;0.20;0.10;;;;;;;2.51;100.00;99562.97;5074120;28;20860;-54
2023/12/08 03:55:12;;;;;;;0.20;0.10;;;;;;;2.65;100.00;99563.72;5073375;28;20446;-55
2023/12/08 03:57:38;;;;;;;0.20;0.10;;;;;;;2.61;100.00;99562.03;5060375;28;21047;-54
2023/12/08 04:00:06;;;;;;;0.20;0.10;;;;;;;2.64;100.00;99565.47;5074178;28;20568;-54
2023/12/08 04:02:32;;;;;;;0.20;0.10;;;;;;;2.68;100.00;99567.19;5073917;28;20469;-54
2023/12/08 04:04:59;;;;;;;0.20;0.10;;;;;;;2.69;100.00;99557.56;5070389;28;20458;-55
2023/12/08 04:07:25;;;;;;;0.20;0.10;;;;;;;2.66;100.00;99553.22;5062978;28;20539;-55
2023/12/08 04:09:52;;;;;;;0.30;0.20;;;;;;;2.61;100.00;99549.78;5059850;28;20454;-54
2023/12/08 04:12:20;;;;;;;0.20;0.10;;;;;;;2.72;100.00;99551.41;5068388;28;20916;-54
2023/12/08 04:14:46;;;;;;;0.20;0.10;;;;;;;2.52;100.00;99544.59;5073107;28;20536;-54
2023/12/08 04:17:13;;;;;;;0.20;0.10;;;;;;;2.58;100.00;99543.66;5059781;28;20505;-54
2023/12/08 04:19:39;;;;;;;0.20;0.10;;;;;;;2.53;100.00;99553.34;5073614;28;20454;-54
2023/12/08 04:22:06;;;;;;;0.20;0.10;;;;;;;2.44;100.00;99556.03;5071741;28;20491;-55
2023/12/08 04:24:32;;;;;;;0.30;0.10;;;;;;;2.50;100.00;99561.22;5062143;28;20457;-54
2023/12/08 04:26:59;;;;;;;0.20;0.10;;;;;;;2.55;100.00;99564.69;5061077;28;20591;-54
2023/12/08 04:29:25;;;;;;;0.20;0.10;;;;;;;2.50;100.00;99564.72;5073580;28;20450;-54
2023/12/08 04:31:52;;;;;;;0.20;0.10;;;;;;;2.56;100.00;99566.41;5073309;28;20874;-54
2023/12/08 04:34:18;;;;;;;0.20;0.10;;;;;;;2.63;100.00;99570.75;5066972;28;20457;-55
2023/12/08 04:36:45;;;;;;;0.20;0.20;;;;;;;2.53;100.00;99569.06;5060394;28;20567;-54
2023/12/08 04:39:11;;;;;;;0.20;0.10;;;;;;;2.38;100.00;99568.31;5071913;28;20453;-54
2023/12/08 04:41:38;;;;;;;0.20;0.10;;;;;;;2.51;100.00;99563.84;5068750;28;20447;-54
2023/12/08 04:44:04;;;;;;;0.30;0.10;;;;;;;2.48;100.00;99563.00;5073337;28;20481;-54
2023/12/08 04:46:31;;;;;;;0.20;0.10;;;;;;;2.37;100.00;99553.47;5072955;28;20537;-54
2023/12/08 04:48:57;;;;;;;0.20;0.10;;;;;;;2.30;100.00;99562.22;5073056;28;20450;-54
2023/12/08 04:51:24;;;;;;;0.20;0.10;;;;;;;2.33;100.00;99571.81;5072828;28;20816;-54
2023/12/08 04:53:56;;;;;;;0.20;0.10;;;;;;;2.37;100.00;99550.84;5072737;28;21002;-54
2023/12/08 04:56:23;;;;;;;0.20;0.10;;;;;;;2.29;100.00;99543.91;5070774;28;20459;-54
2023/12/08 04:58:50;;;;;;;0.20;0.10;;;;;;;2.21;100.00;99564.06;5059047;28;20549;-54
2023/12/08 05:01:16;;;;;;;0.20;0.10;;;;;;;2.15;100.00;99559.72;5070373;28;20481;-55
2023/12/08 05:03:43;;;;;;;0.20;0.20;;;;;;;2.13;100.00;99555.38;5072781;28;20446;-54
2023/12/08 05:06:10;;;;;;;0.20;0.10;;;;;;;2.18;100.00;99545.72;5063834;28;20451;-54
2023/12/08 05:08:38;;;;;;;0.20;0.10;;;;;;;2.23;100.00;99534.34;5063241;28;20897;-54
2023/12/08 05:11:06;;;;;;;0.20;0.10;;;;;;;2.14;100.00;99533.53;5072791;28;20499;-56
2023/12/08 05:13:32;;;;;;;0.20;0.10;;;;;;;2.16;100.00;99534.38;5062743;28;20482;-55
2023/12/08 05:15:59;;;;;;;0.20;0.10;;;;;;;2.13;100.00;99530.03;5061898;28;20450;-55
2023/12/08 05:18:25;;;;;;;1.07;1.07;;;;;;;2.16;100.00;99516.91;5072553;28;20534;-55
2023/12/08 05:20:52;;;;;;;0.20;0.10;;;;;;;2.23;100.00;99518.59;5064700;28;20454;-55
2023/12/08 05:23:19;;;;;;;0.20;0.10;;;;;;;2.08;100.00;99522.22;5060545;28;20447;-55
2023/12/08 05:25:46;;;;;;;0.20;0.10;;;;;;;2.21;100.00;99530.84;5065464;28;20447;-55
2023/12/08 05:28:12;;;;;;;0.20;0.10;;;;;;;2.15;100.00;99533.50;5065070;28;20480;-54
2023/12/08 05:30:39;;;;;;;0.20;0.10;;;;;;;2.13;100.00;99534.41;5071957;28;20545;-56
2023/12/08 05:33:05;;;;;;;0.20;0.10;;;;;;;2.14;100.00;99541.38;5063865;28;20518;-55
2023/12/08 05:35:32;;;;;;;0.20;0.10;;;;;;;2.29;100.00;99534.28;5063807;28;20454;-55
2023/12/08 05:37:58;;;;;;;0.20;0.10;;;;;;;2.24;100.00;99540.44;5064973;28;20527;-55
2023/12/08 05:40:24;;;;;;;0.20;0.10;;;;;;;2.27;100.00;99554.41;5071704;28;20951;-55
2023/12/08 05:42:51;;;;;;;0.20;0.10;;;;;;;2.24;100.00;99553.56;5071526;28;20442;-55
2023/12/08 05:45:17;;;;;;;0.20;0.10;;;;;;;2.37;100.00;99550.84;5059237;28;20454;-55
2023/12/08 05:47:44;;;;;;;0.20;0.10;;;;;;;2.38;100.00;99555.19;5071689;28;21061;-55
2023/12/08 05:50:11;;;;;;;0.20;0.10;;;;;;;2.36;100.00;99546.47;5071535;28;20499;-55
2023/12/08 05:52:38;;;;;;;0.20;0.10;;;;;;;2.60;100.00;99547.13;5071909;28;20500;-55
2023/12/08 05:55:05;;;;;;;0.20;0.10;;;;;;;2.67;100.00;99565.44;5071608;28;20903;-55
2023/12/08 05:57:31;;;;;;;0.20;0.10;;;;;;;2.80;100.00;99573.22;5071641;28;20523;-55
2023/12/08 05:59:58;;;;;;;0.20;0.10;;;;;;;2.71;100.00;99570.66;5058420;28;20451;-55
2023/12/08 06:02:24;;;;;;;0.20;0.10;;;;;;;2.64;100.00;99575.09;5064996;28;20536;-55
2023/12/08 06:04:51;;;;;;;0.20;0.10;;;;;;;2.71;100.00;99574.16;5071601;28;20931;-55
2023/12/08 06:07:17;;;;;;;0.20;0.10;;;;;;;2.56;100.00;99572.53;5069010;28;20552;-55
2023/12/08 06:09:44;;;;;;;0.20;0.10;;;;;;;2.56;100.00;99575.16;5058884;28;20504;-55
2023/12/08 06:12:10;;;;;;;0.20;0.10;;;;;;;2.55;100.00;99572.56;5068736;28;20481;-55
2023/12/08 06:14:37;;;;;;;0.20;0.10;;;;;;;2.48;100.00;99579.59;5058856;28;20484;-55
2023/12/08 06:17:03;;;;;;;0.20;0.10;;;;;;;2.57;100.00;99576.88;5071086;28;20481;-55
2023/12/08 06:19:31;;;;;;;0.20;0.10;;;;;;;2.66;100.00;99581.22;5070705;28;20507;-55
2023/12/08 06:21:58;;;;;;;0.20;0.10;;;;;;;2.55;100.00;99578.66;5070327;28;20969;-55
2023/12/08 06:24:24;;;;;;;0.20;0.10;;;;;;;2.47;100.00;99587.47;5059382;28;20524;-55
2023/12/08 06:26:51;;;;;;;0.20;0.10;;;;;;;2.59;100.00;99585.63;5058235;28;20482;-56
2023/12/08 06:29:17;;;;;;;0.20;0.10;;;;;;;2.53;100.00;99582.19;5071856;28;20454;-55
2023/12/08 06:31:44;;;;;;;0.20;0.10;;;;;;;2.59;100.00;99598.72;5070278;28;20482;-55
2023/12/08 06:34:10;;;;;;;0.20;0.10;;;;;;;2.73;100.00;99587.25;5062441;28;20491;-55
2023/12/08 06:36:49;;;;;;;0.20;0.10;;;;;;;2.65;100.00;99593.47;5059836;28;20467;-56
2023/12/08 06:39:16;;;;;;;0.20;0.10;;;;;;;2.78;100.00;99585.50;5071442;28;21035;-56
2023/12/08 06:41:43;;;;;;;0.30;0.20;;;;;;;2.85;100.00;99600.28;5062244;28;20457;-55
2023/12/08 06:44:10;;;;;;;0.30;0.10;;;;;;;2.89;100.00;99587.13;5059466;28;20953;-55
2023/12/08 06:46:36;;;;;;;0.20;0.10;;;;;;;2.78;100.00;99580.25;5058777;28;20474;-56
2023/12/08 06:49:03;;;;;;;0.20;0.10;;;;;;;2.58;100.00;99576.00;5070236;28;20536;-55
2023/12/08 06:51:30;;;;;;;0.20;0.10;;;;;;;2.48;100.00;99576.13;5057935;28;21006;-55
2023/12/08 06:53:58;;;;;;;0.20;0.10;;;;;;;2.55;100.00;99573.41;5065429;28;20521;-55
2023/12/08 06:56:24;;;;;;;0.20;0.10;;;;;;;2.72;100.00;99580.28;5061225;28;20454;-55
2023/12/08 06:58:50;;;;;;;0.20;0.10;;;;;;;2.42;100.00;99570.91;5061169;28;20489;-55
2023/12/08 07:01:17;;;;;;;0.30;0.20;;;;;;;2.44;100.00;99561.25;5060939;28;20986;-55
2023/12/08 07:03:44;;;;;;;0.20;0.10;;;;;;;2.46;100.00;99565.59;5062257;28;20541;-55
2023/12/08 07:06:10;;;;;;;0.20;0.10;;;;;;;2.55;100.00;99576.03;5069978;28;20544;-54
2023/12/08 07:08:37;;;;;;;0.20;0.10;;;;;;;2.73;100.00;99582.00;5052098;28;20466;-55
2023/12/08 07:11:03;;;;;;;0.20;0.10;;;;;;;2.72;100.00;99580.28;5068917;28;20477;-55
2023/12/08 07:13:30;;;;;;;0.20;0.20;;;;;;;2.84;100.00;99581.03;5070690;28;20580;-55
2023/12/08 07:15:56;;;;;;;0.20;0.10;;;;;;;2.68;100.00;99582.06;5071123;28;20450;-55
2023/12/08 07:18:23;;;;;;;0.20;0.10;;;;;;;2.66;100.00;99583.84;5070137;28;20473;-55
2023/12/08 07:20:50;;;;;;;0.20;0.10;;;;;;;2.71;100.00;99582.03;5069291;28;20458;-55
2023/12/08 07:23:17;;;;;;;0.20;0.10;;;;;;;2.70;100.00;99580.28;5060896;28;20538;-56
2023/12/08 07:25:43;;;;;;;0.20;0.10;;;;;;;2.90;100.00;99577.50;5052393;28;20557;-59
2023/12/08 07:28:09;;;;;;;0.20;0.10;;;;;;;2.97;100.00;99573.94;5062765;28;21006;-60
2023/12/08 07:30:37;;;;;;;0.63;0.63;;;;;;;2.91;100.00;99580.13;5050640;28;20460;-60
2023/12/08 07:33:04;;;;;;;0.87;0.87;;;;;;;3.23;100.00;99590.28;5050808;28;20478;-61
2023/12/08 07:35:31;;;;;;;0.20;0.10;;;;;;;3.07;100.00;99598.34;5050682;28;20816;-60
2023/12/08 07:37:57;;;;;;;0.20;0.10;;;;;;;3.00;100.00;99602.75;5050539;28;21026;-60
2023/12/08 07:40:24;;;;;;;0.20;0.10;;;;;;;2.94;100.00;99602.84;5050270;28;20455;-57
2023/12/08 07:42:50;;;;;;;0.20;0.10;;;;;;;3.04;100.00;99614.13;5057039;28;20539;-57
2023/12/08 07:45:17;;;;;;;0.20;0.10;;;;;;;3.10;100.00;99621.94;5067543;28;20612;-58
2023/12/08 07:47:44;;;;;;;0.20;0.10;;;;;;;3.16;100.00;99616.66;5066498;28;20470;-58
2023/12/08 07:50:14;;;;;;;0.20;0.10;;;;;;;3.33;100.00;99613.84;5073998;28;20482;-58
2023/12/08 07:52:41;;;;;;;0.20;0.10;;;;;;;3.27;100.00;99605.13;5074995;28;20450;-59
2023/12/08 07:55:11;;;;;;;0.20;0.10;;;;;;;3.17;100.00;99608.75;5074573;28;20454;-58
2023/12/08 07:57:38;;;;;;;0.20;0.10;;;;;;;3.19;100.00;99593.84;5059085;28;20550;-58
2023/12/08 08:00:06;;;;;;;0.20;0.10;;;;;;;2.88;100.00;99600.28;5068298;28;20454;-58
2023/12/08 08:02:33;;;;;;;0.20;0.20;;;;;;;2.79;100.00;99597.72;5072901;28;20454;-58
2023/12/08 08:04:59;;;;;;;0.20;0.10;;;;;;;2.78;100.00;99599.47;5061288;28;20488;-58
2023/12/08 08:07:26;;;;;;;0.20;0.10;;;;;;;2.67;100.00;99594.31;5071222;28;20478;-58
2023/12/08 08:09:54;;;;;;;0.20;0.10;;;;;;;2.71;100.00;99589.03;5061524;28;20457;-59
2023/12/08 08:12:21;;;;;;;0.20;0.10;;;;;;;2.76;100.00;99585.50;5074114;28;20536;-58
2023/12/08 08:14:47;;;;;;;0.20;0.10;;;;;;;2.83;100.00;99581.06;5066078;28;20493;-58
2023/12/08 08:17:14;;;;;;;0.20;0.10;;;;;;;2.77;100.00;99570.63;5056543;28;20467;-58
2023/12/08 08:19:41;;;;;;;0.20;0.10;;;;;;;2.96;100.00;99583.56;5067732;28;20485;-58
2023/12/08 08:22:08;;;;;;;0.20;0.10;;;;;;;2.94;100.00;99594.97;5070207;28;20471;-57
2023/12/08 08:24:54;;;;;;;0.20;0.10;;;;;;;2.97;100.00;99593.16;5073427;28;20445;-55
2023/12/08 08:27:21;;;;;;;0.20;0.10;;;;;;;3.24;100.00;99597.28;5069070;28;21044;-57
2023/12/08 08:29:48;;;;;;;0.20;0.10;;;;;;;3.51;100.00;99611.88;5073400;28;21018;-58
2023/12/08 08:32:17;;;;;;;0.20;0.10;;;;;;;3.63;100.00;99613.50;5072348;28;20576;-58
2023/12/08 08:34:44;;;;;;;0.20;0.20;;;;;;;3.56;100.00;99614.44;5067223;28;20482;-58
2023/12/08 08:37:11;;;;;;;0.20;0.10;;;;;;;3.62;100.00;99610.91;5064234;28;20978;-58
2023/12/08 08:39:38;;;;;;;0.20;0.10;;;;;;;3.70;100.00;99620.44;5067769;28;20948;-57
2023/12/08 08:42:05;;;;;;;0.20;0.10;;;;;;;3.75;100.00;99613.38;5072598;28;20519;-58
2023/12/08 08:44:33;;;;;;;0.20;0.10;;;;;;;3.73;100.00;99628.28;5070342;28;20450;-58
2023/12/08 08:46:59;;;;;;;0.20;0.10;;;;;;;3.77;100.00;99637.88;5069077;28;20519;-58
2023/12/08 08:49:26;;;;;;;0.20;0.10;;;;;;;3.69;100.00;99630.94;5062742;28;20472;-58
2023/12/08 08:51:53;;;;;;;0.20;0.10;;;;;;;3.65;100.00;99631.88;5059897;28;20537;-58
2023/12/08 08:54:19;;;;;;;0.20;0.20;;;;;;;3.68;100.00;99632.69;5068300;28;20478;-58
2023/12/08 08:56:45;;;;;;;0.20;0.10;;;;;;;3.77;100.00;99637.88;5060592;28;20482;-58
2023/12/08 08:59:12;;;;;;;0.20;0.10;;;;;;;3.81;100.00;99639.56;5058297;28;20451;-58
2023/12/08 09:01:40;;;;;;;0.20;0.13;;;;;;;3.68;100.00;99635.34;5062161;28;20476;-58
2023/12/08 09:04:07;;;;;;;0.20;0.20;;;;;;;3.68;100.00;99635.34;5068233;28;20500;-57
2023/12/08 09:06:34;;;;;;;0.20;0.10;;;;;;;3.71;100.00;99627.44;5067068;28;20595;-57
2023/12/08 09:09:01;;;;;;;0.20;0.20;;;;;;;3.74;100.00;99626.53;5072382;28;20450;-58
2023/12/08 09:11:27;;;;;;;0.20;0.10;;;;;;;3.74;100.00;99622.13;5072051;28;20450;-57
2023/12/08 09:13:53;;;;;;;0.20;0.10;;;;;;;3.81;100.00;99629.03;5058870;28;20574;-57
2023/12/08 09:16:20;;;;;;;0.20;0.10;;;;;;;3.75;100.00;99618.63;5057139;28;20457;-57
2023/12/08 09:18:46;;;;;;;0.20;0.10;;;;;;;3.79;100.00;99629.97;5066582;28;20460;-57
2023/12/08 09:21:13;;;;;;;0.20;0.10;;;;;;;3.77;100.00;99627.34;5072270;28;20501;-58
2023/12/08 09:23:40;;;;;;;0.20;0.10;;;;;;;3.86;100.00;99632.50;5066193;28;20480;-57
2023/12/08 09:26:06;;;;;;;0.20;0.10;;;;;;;3.89;100.00;99626.34;5065179;28;20472;-57
2023/12/08 09:28:33;;;;;;;0.20;0.10;;;;;;;3.84;100.00;99634.28;5057669;28;20845;-57
2023/12/08 09:31:00;;;;;;;0.20;0.20;;;;;;;3.93;100.00;99640.31;5066050;28;20799;-58
2023/12/08 09:33:27;;;;;;;0.20;0.10;;;;;;;4.25;100.00;99634.63;5067515;28;20457;-57
2023/12/08 09:35:55;;;;;;;0.20;0.20;;;;;;;4.38;100.00;99641.44;5058793;28;20465;-58
2023/12/08 09:38:21;;;;;;;0.20;0.17;;;;;;;4.21;100.00;99640.81;5056346;28;20479;-58
2023/12/08 09:41:00;;;;;;;0.20;0.10;;;;;;;4.00;100.00;99644.63;5068526;28;20460;-57
2023/12/08 09:43:46;;;;;;;0.20;0.20;;;;;;;3.97;100.00;99640.25;5060690;28;20450;-57
2023/12/08 09:46:15;;;;;;;0.30;0.10;;;;;;;3.96;100.00;99645.53;5055196;28;20514;-56
2023/12/08 09:48:44;;;;;;;0.20;0.10;;;;;;;4.09;100.00;99636.59;5063911;28;20450;-53
2023/12/08 09:51:14;;;;;;;0.20;0.10;;;;;;;4.18;100.00;99639.09;5060139;28;20465;-54
2023/12/08 09:53:42;;;;;;;0.30;0.20;;;;;;;4.11;100.00;99634.81;5069230;28;20481;-56
2023/12/08 09:56:09;;;;;;;0.30;0.20;;;;;;;3.96;100.00;99638.50;5072657;28;20446;-53
2023/12/08 09:58:39;;;;;;;0.20;0.17;;;;;;;3.95;100.00;99635.91;5072012;28;20845;-54
2023/12/08 10:01:08;;;;;;;0.20;0.20;;;;;;;3.81;100.00;99631.66;5071671;28;20455;-53
2023/12/08 10:03:34;;;;;;;0.20;0.13;;;;;;;3.83;100.00;99640.41;5071785;28;20939;-53
2023/12/08 10:06:01;;;;;;;0.20;0.13;;;;;;;4.03;100.00;99641.94;5069714;28;20452;-53
2023/12/08 10:08:30;;;;;;;4.60;4.23;;;;;;;4.18;100.00;99639.09;5055004;28;20470;-53
2023/12/08 10:10:56;;;;;;;0.30;0.23;;;;;;;4.08;100.00;99648.00;5068288;28;20992;-53
2023/12/08 10:13:23;;;;;;;0.20;0.10;;;;;;;3.97;100.00;99634.97;5071928;28;20537;-53
2023/12/08 10:15:49;;;;;;;0.20;0.10;;;;;;;3.96;100.00;99632.38;5071820;28;20503;-53
2023/12/08 10:18:23;;;;;;;0.27;0.10;;;;;;;4.19;100.00;99632.94;5071657;28;20470;-53
2023/12/08 10:20:52;;;;;;;0.20;0.10;;;;;;;4.08;100.00;99633.09;5070020;28;20457;-53
2023/12/08 10:23:20;;;;;;;1.17;1.17;;;;;;;4.02;100.00;99627.91;5059672;28;20546;-53
2023/12/08 10:25:48;;;;;;;0.20;0.10;;;;;;;4.11;100.00;99633.06;5070169;28;20446;-55
2023/12/08 10:28:15;;;;;;;0.20;0.10;;;;;;;3.97;100.00;99637.59;5067409;28;20596;-53
2023/12/08 10:30:46;;;;;;;0.20;0.10;;;;;;;3.89;100.00;99636.84;5071186;28;20446;-53
2023/12/08 10:33:23;;;;;;;0.20;0.10;;;;;;;3.94;100.00;99632.41;5070107;28;20932;-53
2023/12/08 10:35:50;;;;;;;0.20;0.10;;;;;;;3.99;100.00;99640.25;5056955;28;20450;-53
2023/12/08 10:38:18;;;;;;;0.20;0.10;;;;;;;3.91;100.00;99634.19;5066172;28;20473;-54
2023/12/08 10:40:49;;;;;;;0.20;0.10;;;;;;;4.12;100.00;99636.56;5071702;28;20540;-54
2023/12/08 10:43:22;;;;;;;0.20;0.10;;;;;;;4.15;100.00;99641.78;5071295;28;20461;-54
2023/12/08 10:45:50;;;;;;;1.90;1.80;;;;;;;4.37;100.00;99648.47;5071300;28;20438;-53
2023/12/08 10:48:21;;;;;;;0.20;0.10;;;;;;;4.45;100.00;99657.16;5071331;28;20470;-54
2023/12/08 10:50:50;;;;;;;0.20;0.10;;;;;;;4.30;100.00;99657.34;5071405;28;20446;-53
2023/12/08 10:53:18;;;;;;;0.20;0.10;;;;;;;4.54;100.00;99652.66;5071347;28;20445;-53
2023/12/08 10:56:06;;;;;;;0.20;0.10;;;;;;;4.43;100.00;99650.16;5071135;28;20927;-54
2023/12/08 10:58:39;;;;;;;0.20;0.20;;;;;;;4.41;100.00;99652.81;5058991;28;20508;-54
2023/12/08 11:01:14;;;;;;;0.20;0.20;;;;;;;4.11;100.00;99654.13;5071000;28;20868;-53
2023/12/08 11:03:42;;;;;;;0.20;0.10;;;;;;;4.26;100.00;99653.03;5071339;28;20813;-54
2023/12/08 11:06:33;;;;;;;0.20;0.20;;;;;;;4.40;100.00;99651.09;5069089;28;20445;-54
2023/12/08 11:09:06;;;;;;;0.20;0.10;;;;;;;4.21;100.00;99657.47;5071078;28;20502;-57
2023/12/08 11:11:37;;;;;;;0.20;0.10;;;;;;;4.03;100.00;99661.22;5069810;28;21010;-53
2023/12/08 11:14:19;;;;;;;0.20;0.20;;;;;;;3.94;100.00;99663.06;5070865;28;20582;-53
2023/12/08 11:16:57;;;;;;;0.20;0.10;;;;;;;3.98;100.00;99664.81;5070943;28;20564;-54
2023/12/08 11:19:24;;;;;;;0.20;0.10;;;;;;;4.44;100.00;99662.44;5074395;28;20434;-54
2023/12/08 11:21:53;;;;;;;0.30;0.17;;;;;;;4.46;100.00;99650.13;5074462;28;20454;-55
2023/12/08 11:24:20;;;;;;;0.20;0.10;;;;;;;4.33;100.00;99656.44;5061624;28;20452;-56
2023/12/08 11:27:18;;;;;;;0.20;0.10;;;;;;;4.12;100.00;99642.69;5070373;28;20474;-54
2023/12/08 11:30:10;;;;;;;0.20;0.10;;;;;;;4.11;100.00;99640.97;5073188;28;20796;-54
2023/12/08 11:32:47;;;;;;;0.20;0.10;;;;;;;4.22;100.00;99650.44;5062613;28;20514;-54
2023/12/08 11:35:17;;;;;;;0.20;0.10;;;;;;;4.10;100.00;99660.22;5074180;28;20492;-53
2023/12/08 11:37:45;;;;;;;0.20;0.10;;;;;;;4.35;100.00;99652.91;5066165;28;20850;-54